sensor_id;sensor_type;location;lat;lon;timestamp;temperature;humidity
67817;DHT22;54614;47.576;7.524;2022-11-06T00:00:43;24.20;54.20
67817;DHT22;54614;47.576;7.524;2022-11-06T00:03:10;24.10;54.20
67817;DHT22;54614;47.576;7.524;2022-11-06T00:05:40;24.20;53.60
67817;DHT22;54614;47.576;7.524;2022-11-06T00:08:33;24.30;53.80
67817;DHT22;54614;47.576;7.524;2022-11-06T00:11:06;24.30;53.50
67817;DHT22;54614;47.576;7.524;2022-11-06T00:13:36;24.30;53.40
67817;DHT22;54614;47.576;7.524;2022-11-06T00:16:04;24.30;53.40
67817;DHT22;54614;47.576;7.524;2022-11-06T00:18:32;24.40;53.30
67817;DHT22;54614;47.576;7.524;2022-11-06T00:21:05;24.40;53.40
67817;DHT22;54614;47.576;7.524;2022-11-06T00:23:44;24.30;53.40
67817;DHT22;54614;47.576;7.524;2022-11-06T00:26:13;24.30;53.40
67817;DHT22;54614;47.576;7.524;2022-11-06T00:28:41;24.30;53.40
67817;DHT22;54614;47.576;7.524;2022-11-06T00:31:10;24.30;54.10
67817;DHT22;54614;47.576;7.524;2022-11-06T00:33:38;24.30;53.50
67817;DHT22;54614;47.576;7.524;2022-11-06T00:36:07;24.30;53.40
67817;DHT22;54614;47.576;7.524;2022-11-06T00:38:35;24.30;53.20
67817;DHT22;54614;47.576;7.524;2022-11-06T00:41:05;24.30;53.10
67817;DHT22;54614;47.576;7.524;2022-11-06T00:43:34;24.30;53.30
67817;DHT22;54614;47.576;7.524;2022-11-06T00:46:20;24.30;53.30
67817;DHT22;54614;47.576;7.524;2022-11-06T00:48:46;24.30;53.30
67817;DHT22;54614;47.576;7.524;2022-11-06T00:51:23;24.30;53.40
67817;DHT22;54614;47.576;7.524;2022-11-06T00:53:57;24.30;53.40
67817;DHT22;54614;47.576;7.524;2022-11-06T00:56:25;24.20;53.40
67817;DHT22;54614;47.576;7.524;2022-11-06T00:58:51;24.20;53.30
67817;DHT22;54614;47.576;7.524;2022-11-06T01:01:23;24.20;53.40
67817;DHT22;54614;47.576;7.524;2022-11-06T01:04:09;24.30;53.40
67817;DHT22;54614;47.576;7.524;2022-11-06T01:06:42;24.20;53.80
67817;DHT22;54614;47.576;7.524;2022-11-06T01:09:14;24.30;53.30
67817;DHT22;54614;47.576;7.524;2022-11-06T01:11:55;24.20;53.30
67817;DHT22;54614;47.576;7.524;2022-11-06T01:14:23;24.20;53.40
67817;DHT22;54614;47.576;7.524;2022-11-06T01:16:49;24.20;53.40
67817;DHT22;54614;47.576;7.524;2022-11-06T01:19:17;24.20;53.40
67817;DHT22;54614;47.576;7.524;2022-11-06T01:21:46;24.10;53.40
67817;DHT22;54614;47.576;7.524;2022-11-06T01:24:16;24.10;53.40
67817;DHT22;54614;47.576;7.524;2022-11-06T01:26:47;24.10;53.30
67817;DHT22;54614;47.576;7.524;2022-11-06T01:29:15;24.10;53.30
67817;DHT22;54614;47.576;7.524;2022-11-06T01:31:43;24.10;53.30
67817;DHT22;54614;47.576;7.524;2022-11-06T01:34:11;24.10;53.30
67817;DHT22;54614;47.576;7.524;2022-11-06T01:36:37;24.10;53.30
67817;DHT22;54614;47.576;7.524;2022-11-06T01:39:05;24.10;53.20
67817;DHT22;54614;47.576;7.524;2022-11-06T01:41:38;24.10;53.40
67817;DHT22;54614;47.576;7.524;2022-11-06T01:47:25;24.10;53.30
67817;DHT22;54614;47.576;7.524;2022-11-06T01:49:58;24.10;53.40
67817;DHT22;54614;47.576;7.524;2022-11-06T01:52:28;24.10;53.30
67817;DHT22;54614;47.576;7.524;2022-11-06T01:55:05;24.10;53.30
67817;DHT22;54614;47.576;7.524;2022-11-06T01:57:42;24.10;53.00
67817;DHT22;54614;47.576;7.524;2022-11-06T02:00:09;24.10;53.30
67817;DHT22;54614;47.576;7.524;2022-11-06T02:02:36;24.00;53.30
67817;DHT22;54614;47.576;7.524;2022-11-06T02:05:03;24.10;53.30
67817;DHT22;54614;47.576;7.524;2022-11-06T02:07:30;24.10;53.20
67817;DHT22;54614;47.576;7.524;2022-11-06T02:09:57;24.00;53.20
67817;DHT22;54614;47.576;7.524;2022-11-06T02:12:41;24.10;53.10
67817;DHT22;54614;47.576;7.524;2022-11-06T02:18:25;23.90;53.00
67817;DHT22;54614;47.576;7.524;2022-11-06T02:23:54;24.10;52.90
67817;DHT22;54614;47.576;7.524;2022-11-06T02:32:58;24.10;53.00
67817;DHT22;54614;47.576;7.524;2022-11-06T02:35:45;24.10;53.00
67817;DHT22;54614;47.576;7.524;2022-11-06T02:38:21;24.10;52.90
67817;DHT22;54614;47.576;7.524;2022-11-06T02:40:56;24.10;52.90
67817;DHT22;54614;47.576;7.524;2022-11-06T02:43:31;24.10;53.00
67817;DHT22;54614;47.576;7.524;2022-11-06T02:46:12;24.10;52.90
67817;DHT22;54614;47.576;7.524;2022-11-06T02:49:04;24.10;52.80
67817;DHT22;54614;47.576;7.524;2022-11-06T02:51:37;24.10;52.60
67817;DHT22;54614;47.576;7.524;2022-11-06T02:54:09;24.20;52.60
67817;DHT22;54614;47.576;7.524;2022-11-06T02:56:41;24.30;52.60
67817;DHT22;54614;47.576;7.524;2022-11-06T02:59:22;24.30;52.60
67817;DHT22;54614;47.576;7.524;2022-11-06T03:02:01;24.20;52.70
67817;DHT22;54614;47.576;7.524;2022-11-06T03:07:08;24.20;52.70
67817;DHT22;54614;47.576;7.524;2022-11-06T03:09:40;24.20;52.60
67817;DHT22;54614;47.576;7.524;2022-11-06T03:12:21;24.20;52.70
67817;DHT22;54614;47.576;7.524;2022-11-06T03:15:25;24.30;52.70
67817;DHT22;54614;47.576;7.524;2022-11-06T03:18:27;24.20;52.60
67817;DHT22;54614;47.576;7.524;2022-11-06T03:21:02;24.30;52.60
67817;DHT22;54614;47.576;7.524;2022-11-06T03:29:18;24.20;52.50
67817;DHT22;54614;47.576;7.524;2022-11-06T03:31:57;24.30;52.50
67817;DHT22;54614;47.576;7.524;2022-11-06T03:34:45;24.30;52.30
67817;DHT22;54614;47.576;7.524;2022-11-06T03:37:22;24.30;52.40
67817;DHT22;54614;47.576;7.524;2022-11-06T03:39:53;24.30;52.50
67817;DHT22;54614;47.576;7.524;2022-11-06T03:42:27;24.30;52.30
67817;DHT22;54614;47.576;7.524;2022-11-06T03:45:02;24.20;52.30
67817;DHT22;54614;47.576;7.524;2022-11-06T03:47:43;24.20;52.40
67817;DHT22;54614;47.576;7.524;2022-11-06T03:50:24;24.20;52.50
67817;DHT22;54614;47.576;7.524;2022-11-06T03:56:09;24.20;52.30
67817;DHT22;54614;47.576;7.524;2022-11-06T03:58:44;24.20;52.40
67817;DHT22;54614;47.576;7.524;2022-11-06T04:01:15;24.20;52.40
67817;DHT22;54614;47.576;7.524;2022-11-06T04:04:18;24.20;52.40
67817;DHT22;54614;47.576;7.524;2022-11-06T04:06:59;24.30;52.20
67817;DHT22;54614;47.576;7.524;2022-11-06T04:09:32;24.20;52.40
67817;DHT22;54614;47.576;7.524;2022-11-06T04:12:28;24.10;52.30
67817;DHT22;54614;47.576;7.524;2022-11-06T04:15:17;24.30;52.30
67817;DHT22;54614;47.576;7.524;2022-11-06T04:17:45;24.20;52.30
67817;DHT22;54614;47.576;7.524;2022-11-06T04:20:15;24.20;52.20
67817;DHT22;54614;47.576;7.524;2022-11-06T04:23:19;24.20;52.20
67817;DHT22;54614;47.576;7.524;2022-11-06T04:26:04;24.30;52.40
67817;DHT22;54614;47.576;7.524;2022-11-06T04:29:24;24.20;52.30
67817;DHT22;54614;47.576;7.524;2022-11-06T04:37:56;24.20;52.20
67817;DHT22;54614;47.576;7.524;2022-11-06T04:43:06;24.30;52.30
67817;DHT22;54614;47.576;7.524;2022-11-06T04:45:42;24.20;52.10
67817;DHT22;54614;47.576;7.524;2022-11-06T04:48:13;24.20;52.10
67817;DHT22;54614;47.576;7.524;2022-11-06T04:50:47;24.20;52.10
67817;DHT22;54614;47.576;7.524;2022-11-06T04:53:18;24.30;52.80
67817;DHT22;54614;47.576;7.524;2022-11-06T04:55:54;24.20;52.10
67817;DHT22;54614;47.576;7.524;2022-11-06T04:58:24;24.30;52.10
67817;DHT22;54614;47.576;7.524;2022-11-06T05:00:51;24.30;52.20
67817;DHT22;54614;47.576;7.524;2022-11-06T05:03:17;24.30;52.20
67817;DHT22;54614;47.576;7.524;2022-11-06T05:05:43;24.30;52.00
67817;DHT22;54614;47.576;7.524;2022-11-06T05:08:17;24.30;52.20
67817;DHT22;54614;47.576;7.524;2022-11-06T05:10:45;24.30;52.10
67817;DHT22;54614;47.576;7.524;2022-11-06T05:13:12;24.30;52.20
67817;DHT22;54614;47.576;7.524;2022-11-06T05:15:39;24.30;52.70
67817;DHT22;54614;47.576;7.524;2022-11-06T05:18:06;24.20;52.10
67817;DHT22;54614;47.576;7.524;2022-11-06T05:20:32;24.20;52.10
67817;DHT22;54614;47.576;7.524;2022-11-06T05:22:58;24.20;52.10
67817;DHT22;54614;47.576;7.524;2022-11-06T05:25:36;24.20;52.10
67817;DHT22;54614;47.576;7.524;2022-11-06T05:28:06;24.20;52.10
67817;DHT22;54614;47.576;7.524;2022-11-06T05:30:34;24.20;52.10
67817;DHT22;54614;47.576;7.524;2022-11-06T05:33:01;24.00;52.30
67817;DHT22;54614;47.576;7.524;2022-11-06T05:35:27;23.90;52.80
67817;DHT22;54614;47.576;7.524;2022-11-06T05:38:00;24.00;52.50
67817;DHT22;54614;47.576;7.524;2022-11-06T05:40:27;24.10;52.40
67817;DHT22;54614;47.576;7.524;2022-11-06T05:42:54;24.10;52.20
67817;DHT22;54614;47.576;7.524;2022-11-06T05:45:20;24.20;52.10
67817;DHT22;54614;47.576;7.524;2022-11-06T05:47:46;24.30;52.20
67817;DHT22;54614;47.576;7.524;2022-11-06T05:50:11;24.20;52.10
67817;DHT22;54614;47.576;7.524;2022-11-06T05:52:37;24.20;52.10
67817;DHT22;54614;47.576;7.524;2022-11-06T05:55:04;24.20;52.10
67817;DHT22;54614;47.576;7.524;2022-11-06T05:57:31;24.10;52.00
67817;DHT22;54614;47.576;7.524;2022-11-06T05:59:57;24.10;52.10
67817;DHT22;54614;47.576;7.524;2022-11-06T06:02:23;24.20;52.10
67817;DHT22;54614;47.576;7.524;2022-11-06T06:04:48;24.10;52.10
67817;DHT22;54614;47.576;7.524;2022-11-06T06:07:14;24.10;52.70
67817;DHT22;54614;47.576;7.524;2022-11-06T06:09:40;24.10;52.10
67817;DHT22;54614;47.576;7.524;2022-11-06T06:12:07;24.10;52.00
67817;DHT22;54614;47.576;7.524;2022-11-06T06:14:37;24.10;52.10
67817;DHT22;54614;47.576;7.524;2022-11-06T06:17:03;24.10;52.00
67817;DHT22;54614;47.576;7.524;2022-11-06T06:19:29;24.20;52.10
67817;DHT22;54614;47.576;7.524;2022-11-06T06:21:55;24.10;52.00
67817;DHT22;54614;47.576;7.524;2022-11-06T06:24:20;24.10;52.10
67817;DHT22;54614;47.576;7.524;2022-11-06T06:26:46;24.10;52.00
67817;DHT22;54614;47.576;7.524;2022-11-06T06:29:12;24.10;52.10
67817;DHT22;54614;47.576;7.524;2022-11-06T06:31:38;24.20;52.10
67817;DHT22;54614;47.576;7.524;2022-11-06T06:34:04;24.20;52.10
67817;DHT22;54614;47.576;7.524;2022-11-06T06:36:29;24.10;52.10
67817;DHT22;54614;47.576;7.524;2022-11-06T06:38:55;24.20;52.10
67817;DHT22;54614;47.576;7.524;2022-11-06T06:41:21;24.10;52.00
67817;DHT22;54614;47.576;7.524;2022-11-06T06:43:48;24.10;52.10
67817;DHT22;54614;47.576;7.524;2022-11-06T06:46:14;24.10;52.10
67817;DHT22;54614;47.576;7.524;2022-11-06T06:48:40;24.00;52.10
67817;DHT22;54614;47.576;7.524;2022-11-06T06:51:06;24.00;52.20
67817;DHT22;54614;47.576;7.524;2022-11-06T06:53:34;24.10;52.30
67817;DHT22;54614;47.576;7.524;2022-11-06T06:56:01;24.10;52.00
67817;DHT22;54614;47.576;7.524;2022-11-06T06:58:28;24.10;52.10
67817;DHT22;54614;47.576;7.524;2022-11-06T07:00:57;24.10;52.10
67817;DHT22;54614;47.576;7.524;2022-11-06T07:03:23;24.10;52.20
67817;DHT22;54614;47.576;7.524;2022-11-06T07:05:49;24.10;52.00
67817;DHT22;54614;47.576;7.524;2022-11-06T07:08:15;24.20;52.10
67817;DHT22;54614;47.576;7.524;2022-11-06T07:10:41;24.10;52.00
67817;DHT22;54614;47.576;7.524;2022-11-06T07:13:06;24.10;52.00
67817;DHT22;54614;47.576;7.524;2022-11-06T07:15:32;24.00;52.20
67817;DHT22;54614;47.576;7.524;2022-11-06T07:18:05;24.00;52.20
67817;DHT22;54614;47.576;7.524;2022-11-06T07:20:32;24.10;52.00
67817;DHT22;54614;47.576;7.524;2022-11-06T07:22:58;24.10;52.00
67817;DHT22;54614;47.576;7.524;2022-11-06T07:25:29;24.10;52.00
67817;DHT22;54614;47.576;7.524;2022-11-06T07:27:59;24.00;52.00
67817;DHT22;54614;47.576;7.524;2022-11-06T07:30:29;24.00;52.00
67817;DHT22;54614;47.576;7.524;2022-11-06T07:33:00;24.00;52.30
67817;DHT22;54614;47.576;7.524;2022-11-06T07:35:29;23.90;52.30
67817;DHT22;54614;47.576;7.524;2022-11-06T07:37:57;24.00;52.00
67817;DHT22;54614;47.576;7.524;2022-11-06T07:40:23;24.10;52.00
67817;DHT22;54614;47.576;7.524;2022-11-06T07:42:49;24.10;52.00
67817;DHT22;54614;47.576;7.524;2022-11-06T07:45:15;24.00;52.10
67817;DHT22;54614;47.576;7.524;2022-11-06T07:47:41;24.00;52.00
67817;DHT22;54614;47.576;7.524;2022-11-06T07:50:06;23.90;52.00
67817;DHT22;54614;47.576;7.524;2022-11-06T07:52:32;24.00;52.00
67817;DHT22;54614;47.576;7.524;2022-11-06T07:54:58;24.00;52.00
67817;DHT22;54614;47.576;7.524;2022-11-06T07:57:25;24.00;51.90
67817;DHT22;54614;47.576;7.524;2022-11-06T07:59:51;24.00;51.90
67817;DHT22;54614;47.576;7.524;2022-11-06T08:02:17;23.80;52.90
67817;DHT22;54614;47.576;7.524;2022-11-06T08:04:42;23.70;52.80
67817;DHT22;54614;47.576;7.524;2022-11-06T08:07:08;23.80;53.60
67817;DHT22;54614;47.576;7.524;2022-11-06T08:09:34;23.70;53.10
67817;DHT22;54614;47.576;7.524;2022-11-06T08:12:00;23.70;55.30
67817;DHT22;54614;47.576;7.524;2022-11-06T08:14:26;23.70;54.40
67817;DHT22;54614;47.576;7.524;2022-11-06T08:16:52;23.60;54.60
67817;DHT22;54614;47.576;7.524;2022-11-06T08:19:18;23.60;54.60
67817;DHT22;54614;47.576;7.524;2022-11-06T08:21:43;23.30;55.20
67817;DHT22;54614;47.576;7.524;2022-11-06T08:24:09;23.30;55.30
67817;DHT22;54614;47.576;7.524;2022-11-06T08:26:35;23.30;55.30
67817;DHT22;54614;47.576;7.524;2022-11-06T08:29:04;23.30;55.30
67817;DHT22;54614;47.576;7.524;2022-11-06T08:31:29;23.20;55.30
67817;DHT22;54614;47.576;7.524;2022-11-06T08:33:55;23.40;55.00
67817;DHT22;54614;47.576;7.524;2022-11-06T08:36:21;23.50;54.70
67817;DHT22;54614;47.576;7.524;2022-11-06T08:38:48;23.50;54.80
67817;DHT22;54614;47.576;7.524;2022-11-06T08:41:14;23.30;55.10
67817;DHT22;54614;47.576;7.524;2022-11-06T08:43:40;23.50;56.70
67817;DHT22;54614;47.576;7.524;2022-11-06T08:46:07;23.60;56.10
67817;DHT22;54614;47.576;7.524;2022-11-06T08:48:34;23.60;56.00
67817;DHT22;54614;47.576;7.524;2022-11-06T08:51:01;23.70;55.10
67817;DHT22;54614;47.576;7.524;2022-11-06T08:53:28;23.90;54.30
67817;DHT22;54614;47.576;7.524;2022-11-06T08:55:54;23.80;54.30
67817;DHT22;54614;47.576;7.524;2022-11-06T08:58:19;23.90;53.70
67817;DHT22;54614;47.576;7.524;2022-11-06T09:00:45;24.00;54.10
67817;DHT22;54614;47.576;7.524;2022-11-06T09:03:14;23.90;54.00
67817;DHT22;54614;47.576;7.524;2022-11-06T09:05:42;24.00;53.90
67817;DHT22;54614;47.576;7.524;2022-11-06T09:08:09;23.90;53.80
67817;DHT22;54614;47.576;7.524;2022-11-06T09:10:36;23.90;53.80
67817;DHT22;54614;47.576;7.524;2022-11-06T09:13:03;24.00;53.40
67817;DHT22;54614;47.576;7.524;2022-11-06T09:15:29;24.00;53.60
67817;DHT22;54614;47.576;7.524;2022-11-06T09:17:55;24.10;53.10
67817;DHT22;54614;47.576;7.524;2022-11-06T09:20:22;24.20;53.00
67817;DHT22;54614;47.576;7.524;2022-11-06T09:22:50;24.10;53.10
67817;DHT22;54614;47.576;7.524;2022-11-06T09:25:16;24.10;53.20
67817;DHT22;54614;47.576;7.524;2022-11-06T09:27:47;23.80;54.10
67817;DHT22;54614;47.576;7.524;2022-11-06T09:30:17;23.70;54.20
67817;DHT22;54614;47.576;7.524;2022-11-06T09:32:52;24.00;53.80
67817;DHT22;54614;47.576;7.524;2022-11-06T09:35:21;24.00;55.20
67817;DHT22;54614;47.576;7.524;2022-11-06T09:37:48;24.00;54.50
67817;DHT22;54614;47.576;7.524;2022-11-06T09:40:23;24.00;54.50
67817;DHT22;54614;47.576;7.524;2022-11-06T09:43:12;23.90;54.60
67817;DHT22;54614;47.576;7.524;2022-11-06T09:45:46;23.80;54.80
67817;DHT22;54614;47.576;7.524;2022-11-06T09:48:23;24.00;54.10
67817;DHT22;54614;47.576;7.524;2022-11-06T09:51:35;24.10;53.80
67817;DHT22;54614;47.576;7.524;2022-11-06T09:54:16;24.10;53.80
67817;DHT22;54614;47.576;7.524;2022-11-06T09:56:49;23.90;54.50
67817;DHT22;54614;47.576;7.524;2022-11-06T09:59:24;23.80;55.50
67817;DHT22;54614;47.576;7.524;2022-11-06T10:01:54;23.80;54.80
67817;DHT22;54614;47.576;7.524;2022-11-06T10:04:43;23.90;54.60
67817;DHT22;54614;47.576;7.524;2022-11-06T10:07:31;23.90;54.80
67817;DHT22;54614;47.576;7.524;2022-11-06T10:10:05;23.90;54.70
67817;DHT22;54614;47.576;7.524;2022-11-06T10:16:06;24.00;54.60
67817;DHT22;54614;47.576;7.524;2022-11-06T10:19:09;24.00;55.20
67817;DHT22;54614;47.576;7.524;2022-11-06T10:21:48;24.00;54.50
67817;DHT22;54614;47.576;7.524;2022-11-06T10:27:16;24.00;54.40
67817;DHT22;54614;47.576;7.524;2022-11-06T10:35:49;24.00;54.70
67817;DHT22;54614;47.576;7.524;2022-11-06T10:38:27;24.10;54.10
67817;DHT22;54614;47.576;7.524;2022-11-06T10:40:57;24.40;53.80
67817;DHT22;54614;47.576;7.524;2022-11-06T10:43:37;24.20;54.00
67817;DHT22;54614;47.576;7.524;2022-11-06T10:48:56;24.10;54.20
67817;DHT22;54614;47.576;7.524;2022-11-06T10:52:03;24.30;54.10
67817;DHT22;54614;47.576;7.524;2022-11-06T11:00:11;23.90;55.10
67817;DHT22;54614;47.576;7.524;2022-11-06T11:03:00;24.10;54.60
67817;DHT22;54614;47.576;7.524;2022-11-06T11:05:45;24.50;53.70
67817;DHT22;54614;47.576;7.524;2022-11-06T11:08:31;24.60;53.60
67817;DHT22;54614;47.576;7.524;2022-11-06T11:16:20;24.60;53.40
67817;DHT22;54614;47.576;7.524;2022-11-06T11:18:50;24.70;53.40
67817;DHT22;54614;47.576;7.524;2022-11-06T11:21:23;24.70;53.40
67817;DHT22;54614;47.576;7.524;2022-11-06T11:26:27;24.70;53.20
67817;DHT22;54614;47.576;7.524;2022-11-06T11:28:58;24.80;53.00
67817;DHT22;54614;47.576;7.524;2022-11-06T11:31:32;24.90;52.80
67817;DHT22;54614;47.576;7.524;2022-11-06T11:34:05;25.00;52.70
67817;DHT22;54614;47.576;7.524;2022-11-06T11:36:58;25.00;52.70
67817;DHT22;54614;47.576;7.524;2022-11-06T11:39:29;25.00;52.70
67817;DHT22;54614;47.576;7.524;2022-11-06T11:42:22;25.00;52.90
67817;DHT22;54614;47.576;7.524;2022-11-06T11:47:37;25.00;52.50
67817;DHT22;54614;47.576;7.524;2022-11-06T11:55:38;24.80;52.70
67817;DHT22;54614;47.576;7.524;2022-11-06T11:58:18;24.80;52.70
67817;DHT22;54614;47.576;7.524;2022-11-06T12:00:53;24.90;52.30
67817;DHT22;54614;47.576;7.524;2022-11-06T12:03:24;24.90;53.90
67817;DHT22;54614;47.576;7.524;2022-11-06T12:06:09;24.80;53.10
67817;DHT22;54614;47.576;7.524;2022-11-06T12:08:39;24.80;52.90
67817;DHT22;54614;47.576;7.524;2022-11-06T12:11:17;24.70;52.70
67817;DHT22;54614;47.576;7.524;2022-11-06T12:14:15;24.70;52.70
67817;DHT22;54614;47.576;7.524;2022-11-06T12:17:18;24.70;52.60
67817;DHT22;54614;47.576;7.524;2022-11-06T12:19:53;24.70;53.20
67817;DHT22;54614;47.576;7.524;2022-11-06T12:22:37;24.60;52.90
67817;DHT22;54614;47.576;7.524;2022-11-06T12:25:24;24.60;52.90
67817;DHT22;54614;47.576;7.524;2022-11-06T12:27:59;24.60;52.70
67817;DHT22;54614;47.576;7.524;2022-11-06T12:30:28;24.60;52.50
67817;DHT22;54614;47.576;7.524;2022-11-06T12:33:02;24.60;53.10
67817;DHT22;54614;47.576;7.524;2022-11-06T12:35:43;24.60;53.60
67817;DHT22;54614;47.576;7.524;2022-11-06T12:41:28;24.60;53.50
67817;DHT22;54614;47.576;7.524;2022-11-06T12:44:08;24.60;53.20
67817;DHT22;54614;47.576;7.524;2022-11-06T12:55:30;24.60;53.40
67817;DHT22;54614;47.576;7.524;2022-11-06T13:01:04;24.70;53.20
67817;DHT22;54614;47.576;7.524;2022-11-06T13:04:08;24.70;53.10
67817;DHT22;54614;47.576;7.524;2022-11-06T13:15:55;24.60;53.00
67817;DHT22;54614;47.576;7.524;2022-11-06T13:18:50;24.60;53.10
67817;DHT22;54614;47.576;7.524;2022-11-06T13:21:23;24.60;53.00
67817;DHT22;54614;47.576;7.524;2022-11-06T13:23:51;24.60;53.00
67817;DHT22;54614;47.576;7.524;2022-11-06T13:26:43;24.50;52.80
67817;DHT22;54614;47.576;7.524;2022-11-06T13:29:16;24.50;52.90
67817;DHT22;54614;47.576;7.524;2022-11-06T13:31:47;24.50;52.90
67817;DHT22;54614;47.576;7.524;2022-11-06T13:34:23;24.50;52.90
67817;DHT22;54614;47.576;7.524;2022-11-06T13:36:59;24.50;52.70
67817;DHT22;54614;47.576;7.524;2022-11-06T13:39:35;24.50;52.70
67817;DHT22;54614;47.576;7.524;2022-11-06T13:42:30;24.50;52.70
67817;DHT22;54614;47.576;7.524;2022-11-06T13:45:03;24.40;52.70
67817;DHT22;54614;47.576;7.524;2022-11-06T13:47:51;24.40;52.80
67817;DHT22;54614;47.576;7.524;2022-11-06T13:50:46;24.40;52.90
67817;DHT22;54614;47.576;7.524;2022-11-06T14:08:25;24.40;52.80
67817;DHT22;54614;47.576;7.524;2022-11-06T14:11:15;24.30;52.80
67817;DHT22;54614;47.576;7.524;2022-11-06T14:14:02;24.40;52.80
67817;DHT22;54614;47.576;7.524;2022-11-06T14:16:36;24.40;52.90
67817;DHT22;54614;47.576;7.524;2022-11-06T14:19:05;24.40;52.80
67817;DHT22;54614;47.576;7.524;2022-11-06T14:21:47;24.30;52.80
67817;DHT22;54614;47.576;7.524;2022-11-06T14:24:42;24.30;52.70
67817;DHT22;54614;47.576;7.524;2022-11-06T14:28:02;24.40;52.60
67817;DHT22;54614;47.576;7.524;2022-11-06T14:34:56;24.40;52.80
67817;DHT22;54614;47.576;7.524;2022-11-06T14:42:35;24.30;52.90
67817;DHT22;54614;47.576;7.524;2022-11-06T14:45:16;24.30;52.90
67817;DHT22;54614;47.576;7.524;2022-11-06T14:52:46;24.20;52.80
67817;DHT22;54614;47.576;7.524;2022-11-06T14:58:09;24.30;53.30
67817;DHT22;54614;47.576;7.524;2022-11-06T15:00:54;24.30;53.40
67817;DHT22;54614;47.576;7.524;2022-11-06T15:03:33;24.20;53.50
67817;DHT22;54614;47.576;7.524;2022-11-06T15:08:59;24.30;53.60
67817;DHT22;54614;47.576;7.524;2022-11-06T15:16:47;24.20;53.40
67817;DHT22;54614;47.576;7.524;2022-11-06T15:19:21;24.30;53.30
67817;DHT22;54614;47.576;7.524;2022-11-06T15:21:53;24.20;53.20
67817;DHT22;54614;47.576;7.524;2022-11-06T15:24:35;24.20;53.30
67817;DHT22;54614;47.576;7.524;2022-11-06T15:27:15;24.20;53.60
67817;DHT22;54614;47.576;7.524;2022-11-06T15:29:47;24.20;53.70
67817;DHT22;54614;47.576;7.524;2022-11-06T15:32:25;24.20;53.80
67817;DHT22;54614;47.576;7.524;2022-11-06T15:35:14;24.20;53.70
67817;DHT22;54614;47.576;7.524;2022-11-06T15:37:50;24.10;53.80
67817;DHT22;54614;47.576;7.524;2022-11-06T15:42:56;24.10;53.80
67817;DHT22;54614;47.576;7.524;2022-11-06T15:45:27;24.10;53.60
67817;DHT22;54614;47.576;7.524;2022-11-06T15:50:30;24.20;53.40
67817;DHT22;54614;47.576;7.524;2022-11-06T15:58:31;24.10;53.80
67817;DHT22;54614;47.576;7.524;2022-11-06T16:01:00;24.10;53.90
67817;DHT22;54614;47.576;7.524;2022-11-06T16:03:32;24.10;53.90
67817;DHT22;54614;47.576;7.524;2022-11-06T16:06:18;24.10;53.90
67817;DHT22;54614;47.576;7.524;2022-11-06T16:08:45;24.10;54.00
67817;DHT22;54614;47.576;7.524;2022-11-06T16:11:16;24.10;53.80
67817;DHT22;54614;47.576;7.524;2022-11-06T16:13:43;24.10;53.50
67817;DHT22;54614;47.576;7.524;2022-11-06T16:19:31;24.10;53.70
67817;DHT22;54614;47.576;7.524;2022-11-06T16:22:06;24.10;53.90
67817;DHT22;54614;47.576;7.524;2022-11-06T16:24:59;24.10;53.80
67817;DHT22;54614;47.576;7.524;2022-11-06T16:27:32;24.10;53.90
67817;DHT22;54614;47.576;7.524;2022-11-06T16:30:00;24.10;53.80
67817;DHT22;54614;47.576;7.524;2022-11-06T16:32:30;24.10;53.90
67817;DHT22;54614;47.576;7.524;2022-11-06T16:35:55;24.10;53.80
67817;DHT22;54614;47.576;7.524;2022-11-06T16:40:53;24.10;53.60
67817;DHT22;54614;47.576;7.524;2022-11-06T16:43:29;24.10;53.40
67817;DHT22;54614;47.576;7.524;2022-11-06T16:46:03;24.10;53.30
67817;DHT22;54614;47.576;7.524;2022-11-06T16:48:34;24.10;53.20
67817;DHT22;54614;47.576;7.524;2022-11-06T16:51:07;24.10;53.20
67817;DHT22;54614;47.576;7.524;2022-11-06T16:56:30;24.10;53.00
67817;DHT22;54614;47.576;7.524;2022-11-06T16:59:05;24.00;52.90
67817;DHT22;54614;47.576;7.524;2022-11-06T17:01:44;24.10;53.00
67817;DHT22;54614;47.576;7.524;2022-11-06T17:06:55;24.10;52.90
67817;DHT22;54614;47.576;7.524;2022-11-06T17:11:57;24.00;53.20
67817;DHT22;54614;47.576;7.524;2022-11-06T17:14:25;24.10;52.90
67817;DHT22;54614;47.576;7.524;2022-11-06T17:16:59;24.10;53.30
67817;DHT22;54614;47.576;7.524;2022-11-06T17:19:27;24.00;53.20
67817;DHT22;54614;47.576;7.524;2022-11-06T17:21:53;24.00;53.20
67817;DHT22;54614;47.576;7.524;2022-11-06T17:24:20;24.00;53.30
67817;DHT22;54614;47.576;7.524;2022-11-06T17:26:50;23.90;53.10
67817;DHT22;54614;47.576;7.524;2022-11-06T17:29:17;24.00;53.40
67817;DHT22;54614;47.576;7.524;2022-11-06T17:31:44;23.90;53.20
67817;DHT22;54614;47.576;7.524;2022-11-06T17:34:10;24.00;53.20
67817;DHT22;54614;47.576;7.524;2022-11-06T17:36:37;23.90;53.10
67817;DHT22;54614;47.576;7.524;2022-11-06T17:39:06;23.90;53.00
67817;DHT22;54614;47.576;7.524;2022-11-06T17:41:32;23.90;53.20
67817;DHT22;54614;47.576;7.524;2022-11-06T17:44:04;23.90;53.20
67817;DHT22;54614;47.576;7.524;2022-11-06T17:46:50;23.90;53.20
67817;DHT22;54614;47.576;7.524;2022-11-06T17:49:16;24.00;53.10
67817;DHT22;54614;47.576;7.524;2022-11-06T17:51:41;24.00;53.20
67817;DHT22;54614;47.576;7.524;2022-11-06T17:54:26;24.00;53.10
67817;DHT22;54614;47.576;7.524;2022-11-06T17:56:57;24.00;53.30
67817;DHT22;54614;47.576;7.524;2022-11-06T17:59:26;23.90;53.00
67817;DHT22;54614;47.576;7.524;2022-11-06T18:01:52;23.90;53.10
67817;DHT22;54614;47.576;7.524;2022-11-06T18:04:20;23.90;53.20
67817;DHT22;54614;47.576;7.524;2022-11-06T18:06:49;23.90;53.30
67817;DHT22;54614;47.576;7.524;2022-11-06T18:09:17;23.90;53.20
67817;DHT22;54614;47.576;7.524;2022-11-06T18:11:44;23.90;53.30
67817;DHT22;54614;47.576;7.524;2022-11-06T18:14:14;23.90;53.40
67817;DHT22;54614;47.576;7.524;2022-11-06T18:16:40;23.90;53.20
67817;DHT22;54614;47.576;7.524;2022-11-06T18:19:08;23.90;53.30
67817;DHT22;54614;47.576;7.524;2022-11-06T18:21:35;24.00;53.10
67817;DHT22;54614;47.576;7.524;2022-11-06T18:24:01;23.90;53.00
67817;DHT22;54614;47.576;7.524;2022-11-06T18:26:28;23.90;52.90
67817;DHT22;54614;47.576;7.524;2022-11-06T18:28:53;23.90;53.00
67817;DHT22;54614;47.576;7.524;2022-11-06T18:31:19;23.90;52.90
67817;DHT22;54614;47.576;7.524;2022-11-06T18:33:46;23.90;53.00
67817;DHT22;54614;47.576;7.524;2022-11-06T18:36:13;23.90;53.00
67817;DHT22;54614;47.576;7.524;2022-11-06T18:38:41;23.90;53.40
67817;DHT22;54614;47.576;7.524;2022-11-06T18:41:19;23.50;54.50
67817;DHT22;54614;47.576;7.524;2022-11-06T18:43:47;23.40;55.40
67817;DHT22;54614;47.576;7.524;2022-11-06T18:46:15;23.30;55.70
67817;DHT22;54614;47.576;7.524;2022-11-06T18:48:43;23.30;55.60